createdAt,value
2018-04-23T00:00:15.276Z,1001.29
2018-04-23T00:00:55.798Z,1001.27
2018-04-23T00:01:36.306Z,1001.27
2018-04-23T00:02:16.819Z,1001.3
2018-04-23T00:02:57.353Z,1001.32
2018-04-23T00:03:37.865Z,1001.3
2018-04-23T00:04:18.391Z,1001.29
2018-04-23T00:04:58.904Z,1001.3
2018-04-23T00:05:39.413Z,1001.31
2018-04-23T00:06:19.938Z,1001.28
2018-04-23T00:07:00.450Z,1001.29
2018-04-23T00:07:40.966Z,1001.29
2018-04-23T00:08:21.487Z,1001.29
2018-04-23T00:09:02.007Z,1001.25
2018-04-23T00:09:42.528Z,1001.26
2018-04-23T00:10:23.059Z,1001.24
2018-04-23T00:11:03.597Z,1001.25
2018-04-23T00:11:44.140Z,1001.24
2018-04-23T00:12:24.676Z,1001.25
2018-04-23T00:13:05.176Z,1001.21
2018-04-23T00:13:45.696Z,1001.22
2018-04-23T00:14:26.202Z,1001.2
2018-04-23T00:15:06.724Z,1001.26
2018-04-23T00:15:47.265Z,1001.22
2018-04-23T00:16:27.778Z,1001.22
2018-04-23T00:17:08.301Z,1001.23
2018-04-23T00:17:48.847Z,1001.25
2018-04-23T00:18:29.359Z,1001.21
2018-04-23T00:19:09.906Z,1001.23
2018-04-23T00:19:50.441Z,1001.18
2018-04-23T00:20:30.960Z,1001.2
2018-04-23T00:21:11.480Z,1001.2
2018-04-23T00:21:52.008Z,1001.19
2018-04-23T00:22:32.540Z,1001.18
2018-04-23T00:23:13.056Z,1001.2
2018-04-23T00:23:53.605Z,1001.19
2018-04-23T00:24:34.129Z,1001.18
2018-04-23T00:25:14.655Z,1001.2
2018-04-23T00:25:55.161Z,1001.2
2018-04-23T00:26:35.672Z,1001.23
2018-04-23T00:27:16.211Z,1001.23
2018-04-23T00:27:56.757Z,1001.21
2018-04-23T00:28:37.256Z,1001.21
2018-04-23T00:29:17.782Z,1001.23
2018-04-23T00:29:58.293Z,1001.23
2018-04-23T00:30:38.818Z,1001.2
2018-04-23T00:31:19.338Z,1001.19
2018-04-23T00:31:59.868Z,1001.22
2018-04-23T00:32:40.394Z,1001.19
2018-04-23T00:33:20.901Z,1001.18
2018-04-23T00:34:01.411Z,1001.22
2018-04-23T00:34:41.937Z,1001.15
2018-04-23T00:35:22.447Z,1001.16
2018-04-23T00:36:02.963Z,1001.15
2018-04-23T00:36:43.493Z,1001.17
2018-04-23T00:37:24.012Z,1001.15
2018-04-23T00:38:04.533Z,1001.13
2018-04-23T00:38:45.051Z,1001.18
2018-04-23T00:39:25.567Z,1001.11
2018-04-23T00:40:06.088Z,1001.13
2018-04-23T00:40:46.595Z,1001.12
2018-04-23T00:41:27.116Z,1001.15
2018-04-23T00:42:07.629Z,1001.17
2018-04-23T00:42:48.154Z,1001.16
2018-04-23T00:43:28.690Z,1001.13
2018-04-23T00:44:09.214Z,1001.15
2018-04-23T00:44:49.737Z,1001.13
2018-04-23T00:45:30.272Z,1001.17
2018-04-23T00:46:10.787Z,1001.15
2018-04-23T00:46:51.303Z,1001.17
2018-04-23T00:47:31.811Z,1001.13
2018-04-23T00:48:12.335Z,1001.14
2018-04-23T00:48:52.853Z,1001.14
2018-04-23T00:49:33.372Z,1001.18
2018-04-23T00:50:13.897Z,1001.16
2018-04-23T00:50:54.411Z,1001.15
2018-04-23T00:51:34.961Z,1001.1
2018-04-23T00:52:15.485Z,1001.13
2018-04-23T00:52:56.003Z,1001.13
2018-04-23T00:53:36.524Z,1001.15
2018-04-23T00:54:17.044Z,1001.15
2018-04-23T00:54:57.569Z,1001.14
2018-04-23T00:55:38.093Z,1001.17
2018-04-23T00:56:18.634Z,1001.16
2018-04-23T00:56:59.149Z,1001.14
2018-04-23T00:57:39.680Z,1001.16
2018-04-23T00:58:20.180Z,1001.15
2018-04-23T00:59:00.710Z,1001.18
2018-04-23T00:59:41.239Z,1001.17
2018-04-23T01:00:21.764Z,1001.17
2018-04-23T01:01:02.283Z,1001.19
2018-04-23T01:01:42.823Z,1001.14
2018-04-23T01:02:23.331Z,1001.17
2018-04-23T01:03:03.843Z,1001.19
2018-04-23T01:03:44.370Z,1001.16
2018-04-23T01:04:24.874Z,1001.17
2018-04-23T01:05:05.386Z,1001.16
2018-04-23T01:05:45.913Z,1001.19
2018-04-23T01:06:26.434Z,1001.21
2018-04-23T01:07:06.934Z,1001.15
2018-04-23T01:07:47.453Z,1001.16
2018-04-23T01:08:27.976Z,1001.18
2018-04-23T01:09:08.491Z,1001.16
2018-04-23T01:09:49.004Z,1001.17
2018-04-23T01:10:29.525Z,1001.22
2018-04-23T01:11:10.055Z,1001.22
2018-04-23T01:11:50.568Z,1001.22
2018-04-23T01:12:31.094Z,1001.22
2018-04-23T01:13:11.656Z,1001.25
2018-04-23T01:13:52.170Z,1001.22
2018-04-23T01:14:32.684Z,1001.3
2018-04-23T01:15:13.202Z,1001.25
2018-04-23T01:15:53.718Z,1001.23
2018-04-23T01:16:34.240Z,1001.24
2018-04-23T01:17:14.770Z,1001.29
2018-04-23T01:17:55.281Z,1001.27
2018-04-23T01:18:35.819Z,1001.28
2018-04-23T01:19:16.327Z,1001.27
2018-04-23T01:19:56.837Z,1001.29
2018-04-23T01:20:37.358Z,1001.3
2018-04-23T01:21:17.885Z,1001.29
2018-04-23T01:21:58.408Z,1001.29
2018-04-23T01:22:38.937Z,1001.3
2018-04-23T01:23:19.459Z,1001.33
2018-04-23T01:24:00.097Z,1001.26
2018-04-23T01:24:40.613Z,1001.28
2018-04-23T01:25:21.130Z,1001.32
2018-04-23T01:26:01.668Z,1001.3
2018-04-23T01:26:42.185Z,1001.34
2018-04-23T01:27:22.702Z,1001.37
2018-04-23T01:28:03.224Z,1001.37
2018-04-23T01:28:43.739Z,1001.34
2018-04-23T01:29:24.253Z,1001.39
2018-04-23T01:30:04.784Z,1001.35
2018-04-23T01:30:45.306Z,1001.35
2018-04-23T01:31:25.817Z,1001.41
2018-04-23T01:32:06.334Z,1001.36
2018-04-23T01:32:46.847Z,1001.4
2018-04-23T01:33:27.370Z,1001.41
2018-04-23T01:34:07.883Z,1001.41
2018-04-23T01:34:48.413Z,1001.36
2018-04-23T01:35:28.937Z,1001.4
2018-04-23T01:36:09.458Z,1001.4
2018-04-23T01:36:49.982Z,1001.35
2018-04-23T01:37:30.494Z,1001.38
2018-04-23T01:38:11.018Z,1001.36
2018-04-23T01:38:51.616Z,1001.36
2018-04-23T01:39:32.154Z,1001.38
2018-04-23T01:40:12.683Z,1001.36
2018-04-23T01:40:53.215Z,1001.39
2018-04-23T01:41:33.728Z,1001.33
2018-04-23T01:42:14.247Z,1001.38
2018-04-23T01:42:54.769Z,1001.33
2018-04-23T01:43:35.286Z,1001.37
2018-04-23T01:44:15.800Z,1001.36
2018-04-23T01:44:56.321Z,1001.39
2018-04-23T01:45:36.845Z,1001.38
2018-04-23T01:46:17.366Z,1001.36
2018-04-23T01:46:57.890Z,1001.35
2018-04-23T01:47:38.399Z,1001.43
2018-04-23T01:48:18.899Z,1001.38
2018-04-23T01:48:59.417Z,1001.4
2018-04-23T01:49:39.940Z,1001.43
2018-04-23T01:50:20.466Z,1001.43
2018-04-23T01:51:00.981Z,1001.39
2018-04-23T01:51:41.509Z,1001.4
2018-04-23T01:52:22.027Z,1001.42
2018-04-23T01:53:02.551Z,1001.4
2018-04-23T01:53:43.069Z,1001.42
2018-04-23T01:54:23.596Z,1001.47
2018-04-23T01:55:04.133Z,1001.43
2018-04-23T01:55:44.640Z,1001.43
2018-04-23T01:56:25.162Z,1001.45
2018-04-23T01:57:05.676Z,1001.49
2018-04-23T01:57:46.199Z,1001.51
2018-04-23T01:58:26.714Z,1001.47
2018-04-23T01:59:07.214Z,1001.48
2018-04-23T01:59:47.754Z,1001.5
2018-04-23T02:00:28.286Z,1001.51
2018-04-23T02:01:08.808Z,1001.55
2018-04-23T02:01:49.338Z,1001.53
2018-04-23T02:02:29.857Z,1001.5
2018-04-23T02:03:10.380Z,1001.51
2018-04-23T02:03:50.895Z,1001.53
2018-04-23T02:04:31.411Z,1001.56
2018-04-23T02:05:11.930Z,1001.49
2018-04-23T02:05:52.440Z,1001.51
2018-04-23T02:06:32.956Z,1001.49
2018-04-23T02:07:13.479Z,1001.53
2018-04-23T02:07:54.005Z,1001.48
2018-04-23T02:08:34.523Z,1001.5
2018-04-23T02:09:15.025Z,1001.5
2018-04-23T02:09:55.537Z,1001.5
2018-04-23T02:10:36.046Z,1001.52
2018-04-23T02:11:16.565Z,1001.54
2018-04-23T02:11:57.097Z,1001.52
2018-04-23T02:12:37.627Z,1001.51
2018-04-23T02:13:18.137Z,1001.55
2018-04-23T02:13:58.657Z,1001.53
2018-04-23T02:14:39.182Z,1001.51
2018-04-23T02:15:19.691Z,1001.49
2018-04-23T02:16:00.208Z,1001.52
2018-04-23T02:16:40.722Z,1001.52
2018-04-23T02:17:21.244Z,1001.52
2018-04-23T02:18:01.778Z,1001.54
2018-04-23T02:18:42.297Z,1001.53
2018-04-23T02:19:22.824Z,1001.56
2018-04-23T02:20:03.356Z,1001.53
2018-04-23T02:20:43.888Z,1001.53
2018-04-23T02:21:24.397Z,1001.53
2018-04-23T02:22:04.917Z,1001.57
2018-04-23T02:22:45.429Z,1001.55
2018-04-23T02:23:25.946Z,1001.52
2018-04-23T02:24:06.477Z,1001.53
2018-04-23T02:24:47.000Z,1001.54
2018-04-23T02:25:27.528Z,1001.53
2018-04-23T02:26:08.023Z,1001.51
2018-04-23T02:26:48.543Z,1001.49
2018-04-23T02:27:29.063Z,1001.47
2018-04-23T02:28:09.581Z,1001.54
2018-04-23T02:28:50.101Z,1001.48
2018-04-23T02:29:30.625Z,1001.5
2018-04-23T02:30:11.142Z,1001.46
2018-04-23T02:30:51.668Z,1001.52
2018-04-23T02:31:32.185Z,1001.49
2018-04-23T02:32:12.748Z,1001.53
2018-04-23T02:32:53.283Z,1001.51
2018-04-23T02:33:33.815Z,1001.52
2018-04-23T02:34:14.325Z,1001.5
2018-04-23T02:34:54.836Z,1001.48
2018-04-23T02:35:35.372Z,1001.49
2018-04-23T02:36:15.881Z,1001.54
2018-04-23T02:36:56.396Z,1001.5
2018-04-23T02:37:36.932Z,1001.46
2018-04-23T02:38:17.457Z,1001.47
2018-04-23T02:38:57.979Z,1001.43
2018-04-23T02:39:38.501Z,1001.52
2018-04-23T02:40:19.019Z,1001.49
2018-04-23T02:40:59.522Z,1001.5
2018-04-23T02:41:40.045Z,1001.43
2018-04-23T02:42:20.623Z,1001.5
2018-04-23T02:43:01.092Z,1001.47
2018-04-23T02:43:41.600Z,1001.52
2018-04-23T02:44:22.109Z,1001.51
2018-04-23T02:45:02.620Z,1001.51
2018-04-23T02:45:43.140Z,1001.5
2018-04-23T02:46:23.666Z,1001.53
2018-04-23T02:47:04.182Z,1001.52
2018-04-23T02:47:44.701Z,1001.5
2018-04-23T02:48:25.227Z,1001.52
2018-04-23T02:49:05.756Z,1001.51
2018-04-23T02:49:46.270Z,1001.49
2018-04-23T02:50:26.789Z,1001.44
2018-04-23T02:51:07.292Z,1001.46
2018-04-23T02:51:47.823Z,1001.46
2018-04-23T02:52:28.352Z,1001.45
2018-04-23T02:53:08.895Z,1001.44
2018-04-23T02:53:49.440Z,1001.45
2018-04-23T02:54:29.971Z,1001.43
2018-04-23T02:55:10.486Z,1001.46
2018-04-23T02:55:50.995Z,1001.43
2018-04-23T02:56:31.525Z,1001.47
2018-04-23T02:57:12.028Z,1001.47
2018-04-23T02:57:52.544Z,1001.43
2018-04-23T02:58:33.078Z,1001.47
2018-04-23T02:59:13.573Z,1001.44
2018-04-23T02:59:54.091Z,1001.45
2018-04-23T03:00:34.591Z,1001.43
2018-04-23T03:01:15.142Z,1001.45
2018-04-23T03:01:55.635Z,1001.45
2018-04-23T03:02:36.162Z,1001.42
2018-04-23T03:03:16.669Z,1001.4
2018-04-23T03:03:57.251Z,1001.4
2018-04-23T03:04:37.719Z,1001.4
2018-04-23T03:05:18.223Z,1001.42
2018-04-23T03:05:58.751Z,1001.41
2018-04-23T03:06:39.275Z,1001.38
2018-04-23T03:07:19.794Z,1001.39
2018-04-23T03:08:00.326Z,1001.4
2018-04-23T03:08:40.831Z,1001.39
2018-04-23T03:09:21.363Z,1001.37
2018-04-23T03:10:01.869Z,1001.4
2018-04-23T03:10:42.393Z,1001.38
2018-04-23T03:11:22.929Z,1001.41
2018-04-23T03:12:03.449Z,1001.38
2018-04-23T03:12:43.966Z,1001.38
2018-04-23T03:13:24.481Z,1001.33
2018-04-23T03:14:05.009Z,1001.32
2018-04-23T03:14:45.522Z,1001.36
2018-04-23T03:15:26.045Z,1001.4
2018-04-23T03:16:06.574Z,1001.35
2018-04-23T03:16:47.093Z,1001.32
2018-04-23T03:17:27.612Z,1001.34
2018-04-23T03:18:08.145Z,1001.37
2018-04-23T03:18:48.658Z,1001.37
2018-04-23T03:19:29.181Z,1001.38
2018-04-23T03:20:09.694Z,1001.33
2018-04-23T03:20:50.206Z,1001.37
2018-04-23T03:21:30.711Z,1001.36
2018-04-23T03:22:11.230Z,1001.29
2018-04-23T03:22:51.735Z,1001.33
2018-04-23T03:23:32.264Z,1001.3
2018-04-23T03:24:12.795Z,1001.31
2018-04-23T03:24:53.304Z,1001.31
2018-04-23T03:25:33.831Z,1001.35
2018-04-23T03:26:14.339Z,1001.32
2018-04-23T03:26:54.867Z,1001.35
2018-04-23T03:27:35.389Z,1001.33
2018-04-23T03:28:15.898Z,1001.31
2018-04-23T03:28:56.446Z,1001.31
2018-04-23T03:29:36.968Z,1001.3
2018-04-23T03:30:17.488Z,1001.29
2018-04-23T03:30:58.012Z,1001.29
2018-04-23T03:31:38.584Z,1001.33
2018-04-23T03:32:19.120Z,1001.31
2018-04-23T03:32:59.651Z,1001.31
2018-04-23T03:33:40.163Z,1001.36
2018-04-23T03:34:20.684Z,1001.27
2018-04-23T03:35:01.216Z,1001.34
2018-04-23T03:35:41.737Z,1001.39
2018-04-23T03:36:22.261Z,1001.32
2018-04-23T03:37:02.777Z,1001.37
2018-04-23T03:37:43.286Z,1001.36
2018-04-23T03:38:23.818Z,1001.32
2018-04-23T03:39:04.326Z,1001.36
2018-04-23T03:39:44.846Z,1001.34
2018-04-23T03:40:25.365Z,1001.39
2018-04-23T03:41:05.893Z,1001.39
2018-04-23T03:41:46.408Z,1001.4
2018-04-23T03:42:26.923Z,1001.37
2018-04-23T03:43:07.456Z,1001.39
2018-04-23T03:43:47.976Z,1001.44
2018-04-23T03:44:28.551Z,1001.42
2018-04-23T03:45:09.015Z,1001.39
2018-04-23T03:45:49.534Z,1001.43
2018-04-23T03:46:30.051Z,1001.39
2018-04-23T03:47:10.584Z,1001.41
2018-04-23T03:47:51.115Z,1001.41
2018-04-23T03:48:31.625Z,1001.38
2018-04-23T03:49:12.142Z,1001.4
2018-04-23T03:49:52.660Z,1001.37
2018-04-23T03:50:33.200Z,1001.38
2018-04-23T03:51:13.699Z,1001.42
2018-04-23T03:51:54.205Z,1001.39
2018-04-23T03:52:34.745Z,1001.41
2018-04-23T03:53:15.271Z,1001.4
2018-04-23T03:53:55.786Z,1001.39
2018-04-23T03:54:36.316Z,1001.38
2018-04-23T03:55:16.848Z,1001.39
2018-04-23T03:55:57.394Z,1001.38
2018-04-23T03:56:37.925Z,1001.35
2018-04-23T03:57:18.440Z,1001.39
2018-04-23T03:57:58.978Z,1001.39
2018-04-23T03:58:39.502Z,1001.39
2018-04-23T03:59:20.020Z,1001.42
2018-04-23T04:00:00.550Z,1001.44
2018-04-23T04:00:41.077Z,1001.42
2018-04-23T04:01:21.603Z,1001.45
2018-04-23T04:02:02.119Z,1001.45
2018-04-23T04:02:42.649Z,1001.47
2018-04-23T04:03:23.172Z,1001.45
2018-04-23T04:04:03.695Z,1001.46
2018-04-23T04:04:44.229Z,1001.45
2018-04-23T04:05:24.754Z,1001.43
2018-04-23T04:06:05.274Z,1001.42
2018-04-23T04:06:45.790Z,1001.41
2018-04-23T04:07:26.310Z,1001.42
2018-04-23T04:08:06.848Z,1001.43
2018-04-23T04:08:47.359Z,1001.42
2018-04-23T04:09:27.892Z,1001.45
2018-04-23T04:10:08.426Z,1001.45
2018-04-23T04:10:48.944Z,1001.4
2018-04-23T04:11:29.468Z,1001.45
2018-04-23T04:12:09.991Z,1001.43
2018-04-23T04:12:50.516Z,1001.45
2018-04-23T04:13:31.025Z,1001.45
2018-04-23T04:14:11.543Z,1001.41
2018-04-23T04:14:52.081Z,1001.43
2018-04-23T04:15:32.603Z,1001.48
2018-04-23T04:16:13.150Z,1001.46
2018-04-23T04:16:53.672Z,1001.46
2018-04-23T04:17:34.145Z,1001.44
2018-04-23T04:18:14.663Z,1001.45
2018-04-23T04:18:55.204Z,1001.46
2018-04-23T04:19:35.717Z,1001.45
2018-04-23T04:20:16.219Z,1001.44
2018-04-23T04:20:56.739Z,1001.49
2018-04-23T04:21:37.265Z,1001.41
2018-04-23T04:22:17.770Z,1001.45
2018-04-23T04:22:58.287Z,1001.42
2018-04-23T04:23:38.814Z,1001.43
2018-04-23T04:24:19.328Z,1001.47
2018-04-23T04:24:59.849Z,1001.47
2018-04-23T04:25:40.366Z,1001.44
2018-04-23T04:26:20.894Z,1001.45
2018-04-23T04:27:01.411Z,1001.45
2018-04-23T04:27:41.927Z,1001.46
2018-04-23T04:28:22.461Z,1001.41
2018-04-23T04:29:02.991Z,1001.48
2018-04-23T04:29:43.515Z,1001.47
2018-04-23T04:30:24.031Z,1001.49
2018-04-23T04:31:04.562Z,1001.48
2018-04-23T04:31:45.058Z,1001.5
2018-04-23T04:32:25.579Z,1001.52
2018-04-23T04:33:06.095Z,1001.5
2018-04-23T04:33:46.630Z,1001.51
2018-04-23T04:34:27.125Z,1001.51
2018-04-23T04:35:07.649Z,1001.49
2018-04-23T04:35:48.165Z,1001.5
2018-04-23T04:36:28.722Z,1001.53
2018-04-23T04:37:09.254Z,1001.51
2018-04-23T04:37:49.794Z,1001.5
2018-04-23T04:38:30.289Z,1001.55
2018-04-23T04:39:10.826Z,1001.53
2018-04-23T04:39:51.350Z,1001.5
2018-04-23T04:40:31.886Z,1001.51
2018-04-23T04:41:12.416Z,1001.53
2018-04-23T04:41:52.932Z,1001.5
2018-04-23T04:42:33.454Z,1001.52
2018-04-23T04:43:13.960Z,1001.5
2018-04-23T04:43:54.497Z,1001.55
2018-04-23T04:44:35.003Z,1001.54
2018-04-23T04:45:15.524Z,1001.5
2018-04-23T04:45:56.044Z,1001.51
2018-04-23T04:46:36.553Z,1001.53
2018-04-23T04:47:17.090Z,1001.52
2018-04-23T04:47:57.610Z,1001.53
2018-04-23T04:48:38.128Z,1001.52
2018-04-23T04:49:18.653Z,1001.51
2018-04-23T04:49:59.174Z,1001.53
2018-04-23T04:50:39.692Z,1001.57
2018-04-23T04:51:20.220Z,1001.54
2018-04-23T04:52:00.741Z,1001.6
2018-04-23T04:52:41.255Z,1001.58
2018-04-23T04:53:21.784Z,1001.54
2018-04-23T04:54:02.345Z,1001.53
2018-04-23T04:54:42.871Z,1001.52
2018-04-23T04:55:23.387Z,1001.54
2018-04-23T04:56:03.908Z,1001.55
2018-04-23T04:56:44.431Z,1001.56
2018-04-23T04:57:24.953Z,1001.55
2018-04-23T04:58:05.474Z,1001.56
2018-04-23T04:58:45.999Z,1001.55
2018-04-23T04:59:26.525Z,1001.61
2018-04-23T05:00:07.045Z,1001.59
2018-04-23T05:00:47.577Z,1001.58
2018-04-23T05:01:28.114Z,1001.57
2018-04-23T05:02:08.642Z,1001.61
2018-04-23T05:02:49.141Z,1001.52
2018-04-23T05:03:29.632Z,1001.54
2018-04-23T05:04:10.148Z,1001.54
2018-04-23T05:04:50.679Z,1001.57
2018-04-23T05:05:31.213Z,1001.54
2018-04-23T05:06:11.727Z,1001.58
2018-04-23T05:06:52.252Z,1001.61
2018-04-23T05:07:32.789Z,1001.54
2018-04-23T05:08:13.254Z,1001.56
2018-04-23T05:08:53.763Z,1001.59
2018-04-23T05:09:34.252Z,1001.56
2018-04-23T05:10:14.761Z,1001.58
2018-04-23T05:10:55.287Z,1001.51
2018-04-23T05:11:35.811Z,1001.55
2018-04-23T05:12:16.311Z,1001.54
2018-04-23T05:12:56.830Z,1001.51
2018-04-23T05:13:37.346Z,1001.56
2018-04-23T05:14:17.873Z,1001.59
2018-04-23T05:14:58.396Z,1001.54
2018-04-23T05:15:38.949Z,1001.55
2018-04-23T05:16:19.411Z,1001.55
2018-04-23T05:16:59.935Z,1001.53
2018-04-23T05:17:40.476Z,1001.59
2018-04-23T05:18:20.989Z,1001.59
2018-04-23T05:19:01.498Z,1001.61
2018-04-23T05:19:42.018Z,1001.63
2018-04-23T05:20:22.547Z,1001.63
2018-04-23T05:21:03.064Z,1001.63
2018-04-23T05:21:43.594Z,1001.62
2018-04-23T05:22:24.115Z,1001.66
2018-04-23T05:23:04.638Z,1001.65
2018-04-23T05:23:45.169Z,1001.66
2018-04-23T05:24:25.686Z,1001.64
2018-04-23T05:25:06.237Z,1001.68
2018-04-23T05:25:46.765Z,1001.69
2018-04-23T05:26:27.303Z,1001.65
2018-04-23T05:27:07.825Z,1001.68
2018-04-23T05:27:48.341Z,1001.67
2018-04-23T05:28:28.929Z,1001.68
2018-04-23T05:29:09.459Z,1001.65
2018-04-23T05:29:49.981Z,1001.69
2018-04-23T05:30:30.502Z,1001.64
2018-04-23T05:31:11.024Z,1001.67
2018-04-23T05:31:51.549Z,1001.69
2018-04-23T05:32:32.068Z,1001.68
2018-04-23T05:33:12.604Z,1001.69
2018-04-23T05:33:53.114Z,1001.76
2018-04-23T05:34:33.633Z,1001.76
2018-04-23T05:35:14.175Z,1001.75
2018-04-23T05:35:54.677Z,1001.77
2018-04-23T05:36:35.206Z,1001.8
2018-04-23T05:37:15.725Z,1001.77
2018-04-23T05:37:56.258Z,1001.81
2018-04-23T05:38:36.781Z,1001.81
2018-04-23T05:40:34.948Z,1001.81
2018-04-23T05:41:15.451Z,1001.81
2018-04-23T05:41:55.988Z,1001.82
2018-04-23T05:42:36.515Z,1001.85
2018-04-23T05:43:17.034Z,1001.85
2018-04-23T05:43:57.635Z,1001.85
2018-04-23T05:44:38.121Z,1001.88
2018-04-23T05:45:18.610Z,1001.93
2018-04-23T05:45:59.147Z,1001.9
2018-04-23T05:46:39.676Z,1001.94
2018-04-23T05:47:20.184Z,1002.07
2018-04-23T05:48:00.686Z,1002.01
2018-04-23T05:48:41.201Z,1002.06
2018-04-23T05:49:21.734Z,1002.06
2018-04-23T05:50:02.253Z,1002.09
2018-04-23T05:50:42.750Z,1002.1
2018-04-23T05:51:23.279Z,1002.14
2018-04-23T05:52:03.832Z,1002.18
2018-04-23T05:52:44.403Z,1002.17
2018-04-23T05:53:24.940Z,1002.2
2018-04-23T05:54:05.449Z,1002.23
2018-04-23T05:54:45.977Z,1002.23
2018-04-23T05:55:26.521Z,1002.28
2018-04-23T05:56:07.086Z,1002.3
2018-04-23T05:56:47.531Z,1002.32
2018-04-23T05:57:28.046Z,1002.38
2018-04-23T05:58:08.566Z,1002.37
2018-04-23T05:58:49.140Z,1002.4
2018-04-23T05:59:29.658Z,1002.39
2018-04-23T06:00:10.186Z,1002.41
2018-04-23T06:00:50.692Z,1002.35
2018-04-23T06:01:31.217Z,1002.4
2018-04-23T06:02:11.746Z,1002.37
2018-04-23T06:02:52.266Z,1002.4
2018-04-23T06:03:32.780Z,1002.43
2018-04-23T06:04:13.287Z,1002.4
2018-04-23T06:04:53.811Z,1002.4
2018-04-23T06:05:34.329Z,1002.36
2018-04-23T06:06:14.839Z,1002.39
2018-04-23T06:06:55.350Z,1002.42
2018-04-23T06:07:35.879Z,1002.42
2018-04-23T06:08:16.402Z,1002.4
2018-04-23T06:08:56.922Z,1002.42
2018-04-23T06:09:37.451Z,1002.38
2018-04-23T06:10:17.964Z,1002.42
2018-04-23T06:10:58.493Z,1002.41
2018-04-23T06:11:39.003Z,1002.42
2018-04-23T06:12:19.527Z,1002.43
2018-04-23T06:13:00.053Z,1002.42
2018-04-23T06:13:40.575Z,1002.4
2018-04-23T06:14:21.193Z,1002.39
2018-04-23T06:15:01.656Z,1002.37
2018-04-23T06:15:42.202Z,1002.34
2018-04-23T06:16:22.744Z,1002.37
2018-04-23T06:17:03.240Z,1002.36
2018-04-23T06:17:43.758Z,1002.35
2018-04-23T06:18:24.388Z,1002.37
2018-04-23T06:19:04.902Z,1002.38
2018-04-23T06:19:45.471Z,1002.4
2018-04-23T06:20:25.940Z,1002.41
2018-04-23T06:21:06.550Z,1002.48
2018-04-23T06:21:47.105Z,1002.48
2018-04-23T06:22:27.628Z,1002.51
2018-04-23T06:23:08.153Z,1002.48
2018-04-23T06:23:48.718Z,1002.45
2018-04-23T06:24:29.249Z,1002.47
2018-04-23T06:25:09.760Z,1002.53
2018-04-23T06:25:50.314Z,1002.52
2018-04-23T06:26:30.838Z,1002.58
2018-04-23T06:27:11.347Z,1002.6
2018-04-23T06:27:51.860Z,1002.61
2018-04-23T06:28:32.401Z,1002.65
2018-04-23T06:29:12.905Z,1002.64
2018-04-23T06:29:53.435Z,1002.6
2018-04-23T06:30:33.944Z,1002.66
2018-04-23T06:31:14.480Z,1002.67
2018-04-23T06:31:55.008Z,1002.67
2018-04-23T06:32:35.508Z,1002.72
2018-04-23T06:33:16.043Z,1002.69
2018-04-23T06:33:56.572Z,1002.71
2018-04-23T06:34:37.095Z,1002.76
2018-04-23T06:35:17.624Z,1002.79
2018-04-23T06:35:58.138Z,1002.71
2018-04-23T06:36:38.650Z,1002.83
2018-04-23T06:37:19.177Z,1002.82
2018-04-23T06:37:59.688Z,1002.87
2018-04-23T06:38:40.200Z,1002.9
2018-04-23T06:39:20.726Z,1002.87
2018-04-23T06:40:01.249Z,1002.88
2018-04-23T06:40:41.766Z,1002.87
2018-04-23T06:41:22.305Z,1002.87
2018-04-23T06:42:02.847Z,1002.84
2018-04-23T06:42:43.378Z,1002.86
2018-04-23T06:43:23.899Z,1002.85
2018-04-23T06:44:04.411Z,1002.9
2018-04-23T06:44:44.930Z,1002.91
2018-04-23T06:45:25.437Z,1002.91
2018-04-23T06:46:05.987Z,1002.98
2018-04-23T06:46:46.479Z,1003
2018-04-23T06:47:27.001Z,1003.07
2018-04-23T06:48:07.517Z,1003.11
2018-04-23T06:48:48.036Z,1003.16
2018-04-23T06:49:28.539Z,1003.23
2018-04-23T06:50:09.052Z,1003.32
2018-04-23T06:50:49.598Z,1003.4
2018-04-23T06:51:30.105Z,1003.49
2018-04-23T06:52:10.620Z,1003.55
2018-04-23T06:52:51.139Z,1003.63
2018-04-23T06:53:31.643Z,1003.69
2018-04-23T06:54:12.185Z,1003.73
2018-04-23T06:54:52.735Z,1003.77
2018-04-23T06:55:33.275Z,1003.75
2018-04-23T06:56:13.792Z,1003.71
2018-04-23T06:56:54.314Z,1003.69
2018-04-23T06:57:34.845Z,1003.67
2018-04-23T06:58:15.357Z,1003.61
2018-04-23T06:58:55.874Z,1003.61
2018-04-23T06:59:36.403Z,1003.78
2018-04-23T07:00:17.851Z,1003.77
2018-04-23T07:00:58.368Z,1003.78
2018-04-23T07:01:38.898Z,1003.73
2018-04-23T07:02:19.417Z,1003.66
2018-04-23T07:02:59.933Z,1003.67
2018-04-23T07:03:40.446Z,1003.73
2018-04-23T07:04:20.957Z,1003.65
2018-04-23T07:05:01.616Z,1003.75
2018-04-23T07:05:42.018Z,1003.73
2018-04-23T07:06:22.541Z,1003.7
2018-04-23T07:07:03.060Z,1003.65
2018-04-23T07:07:43.588Z,1003.73
2018-04-23T07:08:24.113Z,1003.73
2018-04-23T07:09:04.626Z,1003.69
2018-04-23T07:09:45.141Z,1003.66
2018-04-23T07:10:25.683Z,1003.65
2018-04-23T07:11:06.203Z,1003.55
2018-04-23T07:11:46.737Z,1003.55
2018-04-23T07:12:27.258Z,1003.59
2018-04-23T07:13:07.772Z,1003.6
2018-04-23T07:13:48.293Z,1003.64
2018-04-23T07:14:28.804Z,1003.72
2018-04-23T07:15:09.314Z,1003.72
2018-04-23T07:15:49.833Z,1003.71
2018-04-23T07:16:30.359Z,1003.66
2018-04-23T07:17:10.874Z,1003.65
2018-04-23T07:17:51.392Z,1003.69
2018-04-23T07:18:31.933Z,1003.68
2018-04-23T07:19:12.407Z,1003.72
2018-04-23T07:19:52.931Z,1003.71
2018-04-23T07:20:33.443Z,1003.77
2018-04-23T07:21:13.977Z,1003.75
2018-04-23T07:21:54.495Z,1003.74
2018-04-23T07:22:35.025Z,1003.73
2018-04-23T07:23:15.542Z,1003.71
2018-04-23T07:23:56.061Z,1003.74
2018-04-23T07:24:36.597Z,1003.73
2018-04-23T07:25:17.131Z,1003.75
2018-04-23T07:25:57.660Z,1003.8
2018-04-23T07:26:38.182Z,1003.83
2018-04-23T07:27:18.702Z,1003.85
2018-04-23T07:27:59.215Z,1003.83
2018-04-23T07:28:39.751Z,1003.84
2018-04-23T07:29:20.302Z,1003.86
2018-04-23T07:30:00.784Z,1003.85
2018-04-23T07:30:41.314Z,1003.85
2018-04-23T07:31:21.827Z,1003.84
2018-04-23T07:32:02.336Z,1003.85
2018-04-23T07:32:42.864Z,1003.85
2018-04-23T07:33:23.400Z,1003.85
2018-04-23T07:34:03.925Z,1003.9
2018-04-23T07:34:44.463Z,1003.91
2018-04-23T07:35:24.989Z,1003.97
2018-04-23T07:36:05.524Z,1004
2018-04-23T07:36:46.036Z,1003.98
2018-04-23T07:37:26.582Z,1003.93
2018-04-23T07:38:07.115Z,1003.98
2018-04-23T07:38:47.635Z,1003.97
2018-04-23T07:39:28.150Z,1003.96
2018-04-23T07:40:08.682Z,1004.01
2018-04-23T07:40:49.244Z,1004.02
2018-04-23T07:41:29.728Z,1004.03
2018-04-23T07:42:10.254Z,1004.06
2018-04-23T07:42:50.776Z,1004.04
2018-04-23T07:43:31.300Z,1004.04
2018-04-23T07:44:11.816Z,1004.06
2018-04-23T07:44:52.346Z,1004.01
2018-04-23T07:45:32.866Z,1004.1
2018-04-23T07:46:13.390Z,1004.06
2018-04-23T07:46:53.896Z,1004.05
2018-04-23T07:47:34.439Z,1004.02
2018-04-23T07:48:14.959Z,1004.02
2018-04-23T07:48:55.475Z,1003.94
2018-04-23T07:49:36.005Z,1003.98
2018-04-23T07:50:16.627Z,1003.99
2018-04-23T07:50:57.157Z,1003.96
2018-04-23T07:51:37.779Z,1003.98
2018-04-23T07:52:18.280Z,1003.97
2018-04-23T07:52:58.797Z,1003.95
2018-04-23T07:53:39.312Z,1003.98
2018-04-23T07:54:19.829Z,1003.92
2018-04-23T07:55:00.345Z,1003.93
2018-04-23T07:55:40.876Z,1003.92
2018-04-23T07:56:21.392Z,1003.95
2018-04-23T07:57:01.912Z,1003.92
2018-04-23T07:57:42.427Z,1003.96
2018-04-23T07:58:23.487Z,1003.94
2018-04-23T07:59:04.050Z,1003.94
2018-04-23T07:59:44.563Z,1003.92
2018-04-23T08:00:25.106Z,1003.9
2018-04-23T08:01:05.635Z,1003.88
2018-04-23T08:01:46.145Z,1003.91
2018-04-23T08:02:26.652Z,1003.87
2018-04-23T08:03:07.173Z,1003.87
2018-04-23T08:03:47.696Z,1003.84
2018-04-23T08:04:28.203Z,1003.87
2018-04-23T08:05:08.759Z,1003.89
2018-04-23T08:05:49.286Z,1003.91
2018-04-23T08:06:29.866Z,1003.92
2018-04-23T08:07:10.330Z,1003.94
2018-04-23T08:07:50.861Z,1003.9
2018-04-23T08:08:31.372Z,1003.98
2018-04-23T08:09:11.898Z,1003.98
2018-04-23T08:09:52.418Z,1003.96
2018-04-23T08:10:32.930Z,1004
2018-04-23T08:11:13.447Z,1003.99
2018-04-23T08:11:53.973Z,1003.95
2018-04-23T08:12:34.490Z,1004.02
2018-04-23T08:13:15.011Z,1003.94